< < Back
Terminal Aerodrome Forecast


Current Version              Previous Versions:   1  2  3  4  5  6  7  8  9  

Terminal Aerodrome Forecast

165
FTUS44 KMOB 191200 AAA
TAFMOB
TAF AMD
KMOB 191245Z 1913/2012 02008KT P6SM FEW013 SCT200
     FM191500 36011KT P6SM SCT250=



Latest METAR

400
SAUS80 KWBC 200800 CCA
MTRMOB
METAR KMOB 200756Z AUTO 07006KT 10SM CLR 14/12 A3011 RMK AO2 SLP192
T01440122


USA.gov is the U.S. government's official web portal to all federal, state and local government web resources and services.